createdAt,value
2019-01-16T00:01:57.437Z,90.31
2019-01-16T00:04:41.623Z,90.34
2019-01-16T00:07:31.025Z,90.32
2019-01-16T00:10:24.692Z,90.38
2019-01-16T00:13:09.559Z,90.54
2019-01-16T00:15:47.048Z,90.75
2019-01-16T00:18:25.736Z,90.87
2019-01-16T00:21:09.375Z,91.08
2019-01-16T00:23:52.431Z,91.39
2019-01-16T00:26:30.855Z,91.85
2019-01-16T00:29:14.174Z,92.31
2019-01-16T00:31:57.926Z,92.87
2019-01-16T00:34:45.033Z,93.09
2019-01-16T00:37:39.520Z,93.62
2019-01-16T00:40:38.518Z,93.96
2019-01-16T00:43:39.876Z,94.15
2019-01-16T00:46:19.357Z,94.36
2019-01-16T00:49:16.668Z,94.44
2019-01-16T00:52:07.110Z,94.54
2019-01-16T00:55:01.551Z,94.78
2019-01-16T00:57:41.154Z,94.95
2019-01-16T01:00:22.868Z,95.03
2019-01-16T01:03:16.558Z,95.40
2019-01-16T01:06:07.949Z,96.03
2019-01-16T01:09:01.649Z,96.32
2019-01-16T01:11:40.842Z,97.01
2019-01-16T01:14:38.205Z,97.68
2019-01-16T01:17:29.965Z,98.16
2019-01-16T01:20:10.977Z,98.24
2019-01-16T01:22:57.208Z,98.63
2019-01-16T01:25:46.199Z,98.67
2019-01-16T01:28:27.565Z,98.64
2019-01-16T01:31:12.211Z,98.69
2019-01-16T01:33:50.904Z,98.54
2019-01-16T01:36:44.842Z,98.47
2019-01-16T01:39:50.968Z,98.47
2019-01-16T01:42:44.271Z,98.46
2019-01-16T01:45:23.826Z,98.47
2019-01-16T01:48:03.556Z,98.65
2019-01-16T01:50:48.596Z,98.84
2019-01-16T01:53:34.105Z,99.39
2019-01-16T01:56:29.630Z,100.00
2019-01-16T01:59:15.830Z,100.00
2019-01-16T02:01:54.223Z,100.00
2019-01-16T02:04:46.678Z,100.00
2019-01-16T02:07:40.141Z,100.00
2019-01-16T02:10:25.928Z,100.00
2019-01-16T02:13:18.477Z,100.00
2019-01-16T02:16:04.572Z,100.00
2019-01-16T02:19:01.110Z,100.00
2019-01-16T02:21:51.300Z,100.00
2019-01-16T02:24:49.685Z,100.00
2019-01-16T02:27:58.321Z,100.00
2019-01-16T02:30:56.481Z,100.00
2019-01-16T02:33:43.196Z,100.00
2019-01-16T02:36:37.067Z,100.00
2019-01-16T02:39:34.223Z,100.00
2019-01-16T02:42:26.664Z,100.00
2019-01-16T02:45:17.108Z,100.00
2019-01-16T02:48:02.506Z,100.00
2019-01-16T02:50:50.271Z,100.00
2019-01-16T02:53:28.746Z,100.00
2019-01-16T02:56:07.302Z,100.00
2019-01-16T02:58:48.651Z,100.00
2019-01-16T03:01:34.710Z,99.70
2019-01-16T03:04:29.072Z,99.29
2019-01-16T03:07:13.321Z,99.11
2019-01-16T03:09:57.493Z,98.80
2019-01-16T03:12:36.411Z,98.54
2019-01-16T03:15:15.627Z,98.23
2019-01-16T03:18:08.684Z,98.16
2019-01-16T03:20:58.727Z,98.31
2019-01-16T03:23:37.258Z,98.67
2019-01-16T03:26:23.002Z,98.99
2019-01-16T03:29:01.387Z,99.26
2019-01-16T03:31:55.883Z,99.50
2019-01-16T03:34:40.334Z,99.94
2019-01-16T03:37:32.784Z,100.00
2019-01-16T03:40:23.583Z,100.00
2019-01-16T03:43:07.184Z,100.00
2019-01-16T03:45:49.633Z,100.00
2019-01-16T03:48:43.162Z,100.00
2019-01-16T03:51:39.086Z,100.00
2019-01-16T03:54:36.172Z,100.00
2019-01-16T03:57:14.968Z,100.00
2019-01-16T04:00:07.521Z,100.00
2019-01-16T04:02:46.103Z,100.00
2019-01-16T04:05:39.525Z,100.00
2019-01-16T04:08:37.412Z,100.00
2019-01-16T04:11:26.425Z,100.00
2019-01-16T04:14:14.604Z,100.00
2019-01-16T04:17:09.091Z,100.00
2019-01-16T04:19:51.704Z,100.00
2019-01-16T04:22:39.552Z,100.00
2019-01-16T04:25:18.231Z,99.96
2019-01-16T04:28:10.601Z,99.48
2019-01-16T04:30:56.898Z,99.14
2019-01-16T04:33:36.112Z,98.46
2019-01-16T04:36:24.404Z,97.78
2019-01-16T04:39:08.429Z,97.37
2019-01-16T04:42:01.081Z,96.53
2019-01-16T04:44:51.386Z,95.86
2019-01-16T04:47:42.762Z,95.56
2019-01-16T04:50:32.063Z,95.22
2019-01-16T04:53:10.492Z,95.19
2019-01-16T04:56:03.219Z,95.22
2019-01-16T04:58:53.790Z,94.96
2019-01-16T05:01:32.307Z,94.74
2019-01-16T05:04:21.297Z,94.36
2019-01-16T05:07:13.740Z,94.34
2019-01-16T05:10:06.594Z,93.61
2019-01-16T05:12:46.025Z,93.17
2019-01-16T05:15:36.288Z,92.76
2019-01-16T05:18:27.598Z,91.97
2019-01-16T05:21:11.381Z,91.33
2019-01-16T05:24:04.031Z,90.78
2019-01-16T05:26:52.579Z,90.49
2019-01-16T05:29:47.490Z,89.60
2019-01-16T05:32:36.853Z,88.91
2019-01-16T05:35:15.239Z,89.16
2019-01-16T05:37:54.540Z,89.25
2019-01-16T05:40:48.784Z,89.42
2019-01-16T05:43:55.272Z,89.80
2019-01-16T05:46:38.389Z,89.97
2019-01-16T05:49:17.378Z,90.12
2019-01-16T05:52:08.117Z,90.03
2019-01-16T05:54:46.553Z,89.81
2019-01-16T05:57:35.859Z,89.70
2019-01-16T06:00:32.457Z,89.33
2019-01-16T06:03:30.923Z,89.18
2019-01-16T06:06:21.309Z,89.18
2019-01-16T06:09:17.660Z,88.76
2019-01-16T06:12:10.911Z,88.24
2019-01-16T06:15:05.404Z,87.41
2019-01-16T06:17:55.516Z,86.73
2019-01-16T06:20:43.804Z,86.85
2019-01-16T06:23:38.230Z,85.57
2019-01-16T06:26:19.500Z,85.27
2019-01-16T06:29:03.667Z,84.42
2019-01-16T06:31:51.715Z,84.80
2019-01-16T06:34:34.725Z,84.55
2019-01-16T06:37:28.904Z,84.38
2019-01-16T06:40:24.419Z,84.33
2019-01-16T06:43:03.015Z,84.07
2019-01-16T06:45:49.850Z,83.84
2019-01-16T06:48:40.249Z,83.61
2019-01-16T06:51:25.844Z,83.56
2019-01-16T06:54:08.312Z,83.47
2019-01-16T06:57:03.240Z,82.77
2019-01-16T06:59:56.502Z,82.60
2019-01-16T07:02:52.427Z,82.09
2019-01-16T07:05:46.918Z,82.49
2019-01-16T07:08:31.580Z,82.23
2019-01-16T07:11:17.672Z,81.90
2019-01-16T07:14:08.032Z,82.05
2019-01-16T07:17:01.461Z,81.94
2019-01-16T07:19:57.460Z,81.98
2019-01-16T07:22:53.793Z,81.75
2019-01-16T07:25:46.853Z,81.38
2019-01-16T07:28:34.252Z,81.53
2019-01-16T07:31:22.064Z,81.54
2019-01-16T07:34:02.117Z,81.52
2019-01-16T07:36:40.961Z,81.37
2019-01-16T07:39:42.653Z,80.84
2019-01-16T07:42:46.834Z,80.96
2019-01-16T07:45:26.922Z,80.84
2019-01-16T07:48:10.045Z,80.61
2019-01-16T07:51:04.231Z,80.67
2019-01-16T07:53:44.350Z,80.27
2019-01-16T07:56:23.107Z,80.38
2019-01-16T07:59:21.707Z,80.65
2019-01-16T08:02:09.288Z,80.49
2019-01-16T08:04:54.501Z,80.05
2019-01-16T08:07:41.978Z,79.92
2019-01-16T08:10:36.146Z,79.67
2019-01-16T08:13:25.589Z,79.69
2019-01-16T08:16:05.979Z,79.24
2019-01-16T08:18:53.322Z,79.33
2019-01-16T08:21:41.503Z,79.14
2019-01-16T08:24:20.250Z,79.17
2019-01-16T08:27:15.126Z,79.13
2019-01-16T08:30:05.328Z,79.14
2019-01-16T08:33:02.282Z,78.76
2019-01-16T08:35:54.315Z,78.89
2019-01-16T08:38:45.320Z,78.63
2019-01-16T08:41:33.250Z,78.50
2019-01-16T08:44:16.071Z,78.13
2019-01-16T08:47:13.629Z,78.30
2019-01-16T08:50:12.626Z,78.02
2019-01-16T08:53:19.614Z,78.10
2019-01-16T08:56:12.054Z,77.54
2019-01-16T08:58:52.177Z,77.46
2019-01-16T09:01:37.604Z,77.40
2019-01-16T09:04:32.999Z,77.47
2019-01-16T09:07:31.792Z,77.73
2019-01-16T09:10:29.353Z,77.80
2019-01-16T09:13:18.518Z,77.57
2019-01-16T09:15:56.872Z,77.43
2019-01-16T09:18:40.432Z,77.43
2019-01-16T09:21:36.323Z,77.58
2019-01-16T09:24:41.123Z,77.61
2019-01-16T09:27:52.204Z,77.51
2019-01-16T09:31:01.850Z,77.38
2019-01-16T09:33:50.445Z,77.55
2019-01-16T09:36:45.301Z,76.80
2019-01-16T09:39:45.702Z,76.86
2019-01-16T09:42:29.987Z,76.87
2019-01-16T09:45:13.837Z,76.74
2019-01-16T09:47:53.553Z,76.50
2019-01-16T09:50:48.045Z,76.66
2019-01-16T09:53:44.399Z,75.67
2019-01-16T09:56:37.866Z,75.05
2019-01-16T09:59:24.984Z,75.47
2019-01-16T10:02:09.678Z,75.77
2019-01-16T10:04:58.803Z,75.18
2019-01-16T10:07:43.835Z,75.00
2019-01-16T10:10:34.656Z,74.72
2019-01-16T10:13:16.340Z,74.83
2019-01-16T10:16:11.765Z,75.19
2019-01-16T10:19:14.987Z,75.45
2019-01-16T10:21:54.902Z,75.26
2019-01-16T10:24:41.120Z,75.54
2019-01-16T10:27:26.799Z,75.19
2019-01-16T10:30:19.771Z,75.26
2019-01-16T10:33:06.213Z,75.23
2019-01-16T10:36:00.560Z,75.28
2019-01-16T10:38:52.680Z,75.69
2019-01-16T10:41:48.589Z,75.95
2019-01-16T10:44:32.564Z,75.63
2019-01-16T10:47:16.289Z,75.88
2019-01-16T10:50:11.923Z,75.70
2019-01-16T10:53:07.643Z,75.83
2019-01-16T10:56:02.814Z,75.70
2019-01-16T10:58:59.493Z,75.78
2019-01-16T11:01:46.172Z,75.56
2019-01-16T11:04:43.767Z,75.84
2019-01-16T11:07:37.942Z,75.61
2019-01-16T11:10:18.983Z,75.72
2019-01-16T11:12:58.129Z,75.51
2019-01-16T11:15:47.616Z,75.61
2019-01-16T11:18:26.432Z,75.83
2019-01-16T11:21:11.195Z,75.92
2019-01-16T11:24:00.113Z,75.56
2019-01-16T11:26:45.352Z,75.36
2019-01-16T11:29:41.686Z,75.32
2019-01-16T11:32:36.587Z,75.25
2019-01-16T11:35:24.725Z,75.18
2019-01-16T11:38:25.776Z,75.31
2019-01-16T11:41:10.027Z,75.30
2019-01-16T11:43:58.259Z,75.07
2019-01-16T11:46:43.237Z,75.08
2019-01-16T11:49:36.777Z,75.22
2019-01-16T11:52:15.808Z,74.97
2019-01-16T11:54:54.319Z,75.30
2019-01-16T11:57:36.556Z,75.36
2019-01-16T12:00:27.039Z,75.30
2019-01-16T12:03:13.258Z,75.60
2019-01-16T12:06:07.948Z,75.62
2019-01-16T12:08:59.730Z,75.65
2019-01-16T12:11:55.589Z,75.62
2019-01-16T12:14:41.388Z,75.62
2019-01-16T12:17:19.894Z,75.69
2019-01-16T12:19:58.814Z,75.89
2019-01-16T12:22:54.546Z,76.23
2019-01-16T12:25:52.113Z,75.97
2019-01-16T12:28:37.672Z,76.11
2019-01-16T12:31:17.955Z,75.93
2019-01-16T12:33:57.999Z,76.12
2019-01-16T12:36:55.539Z,76.51
2019-01-16T12:39:35.309Z,76.75
2019-01-16T12:42:26.565Z,76.96
2019-01-16T12:45:16.163Z,77.15
2019-01-16T12:47:56.157Z,77.20
2019-01-16T12:50:47.370Z,77.36
2019-01-16T12:53:37.355Z,77.49
2019-01-16T12:56:33.904Z,77.65
2019-01-16T12:59:16.160Z,77.69
2019-01-16T13:02:12.443Z,77.68
2019-01-16T13:04:59.962Z,77.59
2019-01-16T13:07:56.367Z,77.65
2019-01-16T13:11:01.843Z,77.72
2019-01-16T13:14:04.276Z,77.46
2019-01-16T13:17:20.419Z,77.58
2019-01-16T13:20:24.105Z,77.72
2019-01-16T13:23:11.248Z,77.53
2019-01-16T13:26:08.608Z,77.54
2019-01-16T13:29:14.776Z,77.47
2019-01-16T13:31:56.624Z,77.48
2019-01-16T13:34:37.321Z,77.46
2019-01-16T13:37:27.499Z,77.40
2019-01-16T13:40:20.576Z,77.42
2019-01-16T13:43:32.904Z,77.24
2019-01-16T13:46:13.658Z,77.20
2019-01-16T13:49:00.822Z,77.33
2019-01-16T13:51:50.351Z,77.49
2019-01-16T13:54:44.433Z,77.68
2019-01-16T13:57:45.277Z,77.67
2019-01-16T14:00:41.616Z,77.64
2019-01-16T14:03:20.777Z,77.90
2019-01-16T14:06:13.384Z,77.59
2019-01-16T14:09:02.634Z,77.64
2019-01-16T14:11:44.359Z,77.35
2019-01-16T14:14:29.263Z,77.33
2019-01-16T14:17:34.558Z,77.24
2019-01-16T14:20:25.501Z,77.08
2019-01-16T14:23:18.213Z,76.89
2019-01-16T14:26:04.107Z,76.94
2019-01-16T14:28:58.183Z,76.87
2019-01-16T14:31:39.283Z,76.63
2019-01-16T14:34:27.460Z,76.59
2019-01-16T14:37:22.409Z,76.45
2019-01-16T14:40:01.548Z,76.55
2019-01-16T14:42:40.860Z,76.61
2019-01-16T14:45:38.523Z,76.73
2019-01-16T14:48:45.295Z,76.51
2019-01-16T14:51:27.021Z,76.60
2019-01-16T14:54:06.940Z,76.64
2019-01-16T14:56:46.193Z,76.59
2019-01-16T14:59:39.101Z,76.65
2019-01-16T15:02:28.087Z,76.69
2019-01-16T15:05:07.221Z,76.63
2019-01-16T15:07:53.544Z,76.54
2019-01-16T15:10:46.804Z,76.53
2019-01-16T15:13:36.801Z,76.41
2019-01-16T15:16:15.680Z,76.48
2019-01-16T15:19:01.286Z,76.54
2019-01-16T15:21:54.871Z,76.47
2019-01-16T15:24:42.293Z,76.62
2019-01-16T15:27:22.250Z,76.73
2019-01-16T15:30:01.156Z,76.59
2019-01-16T15:33:01.297Z,76.58
2019-01-16T15:35:58.834Z,76.68
2019-01-16T15:38:45.566Z,76.69
2019-01-16T15:41:29.533Z,76.83
2019-01-16T15:44:19.596Z,76.70
2019-01-16T15:47:07.484Z,76.83
2019-01-16T15:50:22.719Z,76.89
2019-01-16T15:53:16.503Z,77.00
2019-01-16T15:56:13.646Z,77.31
2019-01-16T15:59:26.121Z,77.43
2019-01-16T16:02:29.510Z,77.64
2019-01-16T16:05:31.420Z,77.69
2019-01-16T16:08:13.617Z,77.81
2019-01-16T16:11:08.897Z,77.75
2019-01-16T16:13:56.992Z,77.69
2019-01-16T16:16:49.077Z,77.60
2019-01-16T16:19:38.881Z,77.76
2019-01-16T16:22:25.976Z,77.88
2019-01-16T16:25:06.424Z,77.96
2019-01-16T16:27:47.359Z,78.10
2019-01-16T16:30:43.061Z,78.33
2019-01-16T16:33:53.743Z,78.47
2019-01-16T16:36:44.462Z,78.58
2019-01-16T16:39:37.483Z,78.65
2019-01-16T16:42:36.181Z,78.78
2019-01-16T16:45:38.342Z,78.68
2019-01-16T16:48:16.950Z,78.54
2019-01-16T16:51:05.913Z,78.45
2019-01-16T16:53:54.492Z,78.41
2019-01-16T16:56:34.309Z,78.40
2019-01-16T16:59:21.759Z,78.16
2019-01-16T17:02:14.405Z,78.15
2019-01-16T17:05:13.801Z,78.21
2019-01-16T17:08:09.765Z,78.15
2019-01-16T17:11:05.358Z,78.16
2019-01-16T17:14:11.008Z,78.29
2019-01-16T17:17:09.771Z,78.28
2019-01-16T17:20:06.956Z,78.10
2019-01-16T17:23:05.133Z,78.03
2019-01-16T17:25:59.626Z,77.95
2019-01-16T17:28:39.550Z,77.88
2019-01-16T17:31:21.161Z,77.89
2019-01-16T17:34:15.405Z,78.02
2019-01-16T17:37:05.802Z,78.10
2019-01-16T17:39:49.251Z,78.14
2019-01-16T17:42:49.707Z,78.39
2019-01-16T17:45:33.736Z,78.54
2019-01-16T17:48:33.336Z,78.74
2019-01-16T17:51:29.818Z,78.68
2019-01-16T17:54:28.496Z,78.64
2019-01-16T17:57:25.029Z,78.71
2019-01-16T18:00:19.015Z,78.57
2019-01-16T18:03:07.643Z,78.43
2019-01-16T18:05:50.535Z,78.33
2019-01-16T18:08:59.514Z,78.32
2019-01-16T18:11:39.464Z,78.17
2019-01-16T18:14:32.518Z,78.08
2019-01-16T18:17:12.365Z,78.01
2019-01-16T18:20:05.323Z,78.09
2019-01-16T18:22:54.961Z,78.32
2019-01-16T18:25:39.967Z,78.65
2019-01-16T18:28:28.491Z,78.79
2019-01-16T18:31:06.989Z,78.99
2019-01-16T18:34:10.025Z,79.19
2019-01-16T18:37:04.931Z,79.13
2019-01-16T18:40:00.031Z,78.91
2019-01-16T18:42:38.558Z,78.71
2019-01-16T18:45:21.240Z,78.73
2019-01-16T18:48:00.152Z,78.74
2019-01-16T18:50:56.830Z,78.80
2019-01-16T18:54:00.559Z,78.86
2019-01-16T18:56:47.864Z,78.99
2019-01-16T18:59:45.834Z,79.00
2019-01-16T19:02:37.154Z,79.14
2019-01-16T19:05:18.321Z,79.22
2019-01-16T19:08:10.510Z,79.30
2019-01-16T19:10:49.210Z,79.28
2019-01-16T19:13:46.751Z,79.26
2019-01-16T19:16:53.642Z,79.18
2019-01-16T19:19:52.940Z,78.87
2019-01-16T19:22:38.122Z,78.11
2019-01-16T19:25:35.671Z,77.69
2019-01-16T19:28:47.444Z,77.05
2019-01-16T19:31:36.844Z,76.32
2019-01-16T19:34:23.913Z,75.10
2019-01-16T19:37:18.140Z,75.05
2019-01-16T19:40:14.883Z,75.24
2019-01-16T19:43:14.582Z,74.29
2019-01-16T19:46:03.256Z,74.25
2019-01-16T19:48:59.800Z,74.29
2019-01-16T19:51:55.403Z,74.82
2019-01-16T19:54:35.515Z,75.10
2019-01-16T19:57:30.365Z,75.28
2019-01-16T20:00:38.379Z,75.56
2019-01-16T20:03:37.490Z,75.75
2019-01-16T20:06:28.772Z,75.92
2019-01-16T20:09:13.524Z,75.82
2019-01-16T20:12:12.036Z,75.64
2019-01-16T20:14:59.359Z,75.40
2019-01-16T20:17:47.038Z,75.31
2019-01-16T20:20:43.199Z,75.69
2019-01-16T20:23:27.064Z,75.80
2019-01-16T20:26:07.716Z,75.98
2019-01-16T20:29:03.761Z,76.08
2019-01-16T20:32:04.183Z,76.71
2019-01-16T20:34:57.662Z,75.52
2019-01-16T20:37:56.445Z,75.83
2019-01-16T20:40:50.531Z,76.07
2019-01-16T20:43:50.041Z,76.35
2019-01-16T20:46:30.442Z,76.57
2019-01-16T20:49:25.200Z,76.70
2019-01-16T20:52:38.322Z,76.81
2019-01-16T20:55:25.648Z,76.87
2019-01-16T20:58:05.986Z,77.05
2019-01-16T21:00:51.691Z,77.13
2019-01-16T21:03:46.555Z,77.23
2019-01-16T21:06:31.385Z,77.25
2019-01-16T21:09:13.327Z,77.29
2019-01-16T21:12:07.333Z,77.22
2019-01-16T21:14:51.071Z,77.17
2019-01-16T21:17:32.559Z,77.00
2019-01-16T21:20:15.317Z,76.89
2019-01-16T21:23:05.241Z,76.86
2019-01-16T21:25:56.089Z,76.82
2019-01-16T21:28:51.586Z,76.86
2019-01-16T21:32:00.714Z,76.87
2019-01-16T21:34:57.047Z,76.96
2019-01-16T21:37:58.914Z,76.93
2019-01-16T21:40:55.858Z,76.89
2019-01-16T21:44:05.302Z,76.83
2019-01-16T21:46:44.115Z,76.78
2019-01-16T21:49:22.346Z,76.81
2019-01-16T21:52:07.815Z,76.82
2019-01-16T21:54:51.861Z,76.82
2019-01-16T21:57:33.652Z,76.90
2019-01-16T22:00:20.655Z,77.07
2019-01-16T22:03:19.364Z,77.04
2019-01-16T22:06:09.820Z,77.21
2019-01-16T22:08:59.744Z,77.20
2019-01-16T22:11:39.336Z,77.28
2019-01-16T22:14:26.585Z,77.24
2019-01-16T22:17:05.517Z,77.36
2019-01-16T22:19:49.169Z,77.37
2019-01-16T22:22:39.054Z,77.25
2019-01-16T22:25:18.639Z,77.31
2019-01-16T22:28:01.210Z,77.20
2019-01-16T22:30:42.620Z,77.07
2019-01-16T22:33:36.874Z,77.04
2019-01-16T22:36:33.006Z,76.98
2019-01-16T22:39:27.700Z,77.02
2019-01-16T22:42:13.386Z,77.00
2019-01-16T22:44:58.864Z,77.04
2019-01-16T22:47:53.558Z,76.96
2019-01-16T22:50:50.919Z,77.12
2019-01-16T22:53:43.443Z,77.34
2019-01-16T22:56:36.651Z,77.50
2019-01-16T22:59:23.333Z,77.63
2019-01-16T23:02:17.821Z,77.85
2019-01-16T23:05:22.562Z,78.28
2019-01-16T23:08:08.415Z,79.18
2019-01-16T23:10:53.726Z,79.73
2019-01-16T23:13:47.799Z,80.51
2019-01-16T23:16:38.183Z,81.08
2019-01-16T23:19:33.511Z,81.74
2019-01-16T23:22:26.560Z,82.01
2019-01-16T23:25:28.104Z,81.92
2019-01-16T23:28:14.342Z,82.10
2019-01-16T23:31:15.157Z,82.29
2019-01-16T23:34:00.840Z,82.56
2019-01-16T23:36:59.035Z,82.76
2019-01-16T23:40:08.526Z,83.53
2019-01-16T23:43:15.854Z,84.18
2019-01-16T23:46:25.090Z,84.98
2019-01-16T23:49:32.279Z,85.61
2019-01-16T23:52:23.275Z,86.68
2019-01-16T23:55:14.385Z,87.84
2019-01-16T23:58:00.747Z,88.82
